createdAt,value
2018-11-25T00:00:41.529Z,936.33
2018-11-25T00:01:49.588Z,936.34
2018-11-25T00:02:57.636Z,936.34
2018-11-25T00:04:05.789Z,936.28
2018-11-25T00:05:13.731Z,936.26
2018-11-25T00:06:21.813Z,936.29
2018-11-25T00:07:34.590Z,936.26
2018-11-25T00:08:37.922Z,936.25
2018-11-25T00:09:46.226Z,936.26
2018-11-25T00:10:54.016Z,936.30
2018-11-25T00:12:02.162Z,936.24
2018-11-25T00:13:10.132Z,936.26
2018-11-25T00:14:18.204Z,936.25
2018-11-25T00:15:26.377Z,936.22
2018-11-25T00:16:34.297Z,936.20
2018-11-25T00:17:42.368Z,936.22
2018-11-25T00:18:50.436Z,936.18
2018-11-25T00:19:58.492Z,936.17
2018-11-25T00:21:06.784Z,936.16
2018-11-25T00:22:14.596Z,936.16
2018-11-25T00:23:22.644Z,936.13
2018-11-25T00:24:30.696Z,936.13
2018-11-25T00:25:38.762Z,936.18
2018-11-25T00:26:47.278Z,936.15
2018-11-25T00:27:54.962Z,936.14
2018-11-25T00:29:02.920Z,936.14
2018-11-25T00:30:10.987Z,936.11
2018-11-25T00:31:19.037Z,936.11
2018-11-25T00:32:27.154Z,936.07
2018-11-25T00:33:35.161Z,936.11
2018-11-25T00:34:43.211Z,936.09
2018-11-25T00:35:51.277Z,936.09
2018-11-25T00:36:59.335Z,936.07
2018-11-25T00:38:07.457Z,936.06
2018-11-25T00:39:15.438Z,936.04
2018-11-25T00:40:23.462Z,936.03
2018-11-25T00:41:31.551Z,936.06
2018-11-25T00:42:39.694Z,935.99
2018-11-25T00:43:47.674Z,936.02
2018-11-25T00:44:55.721Z,936.02
2018-11-25T00:46:03.762Z,935.98
2018-11-25T00:47:11.834Z,935.99
2018-11-25T00:48:19.979Z,935.97
2018-11-25T00:49:27.929Z,936.00
2018-11-25T00:50:36.005Z,935.98
2018-11-25T00:51:44.023Z,935.97
2018-11-25T00:52:52.101Z,935.99
2018-11-25T00:54:00.260Z,936.01
2018-11-25T00:55:08.226Z,936.03
2018-11-25T00:56:16.276Z,936.03
2018-11-25T00:57:24.338Z,936.00
2018-11-25T00:58:32.416Z,936.04
2018-11-25T00:59:40.537Z,936.02
2018-11-25T01:00:48.518Z,936.07
2018-11-25T01:01:56.559Z,936.02
2018-11-25T01:03:04.634Z,936.04
2018-11-25T01:04:12.673Z,935.98
2018-11-25T01:05:20.825Z,935.98
2018-11-25T01:06:28.791Z,936.02
2018-11-25T01:07:36.843Z,936.00
2018-11-25T01:08:44.896Z,936.00
2018-11-25T01:09:52.963Z,936.01
2018-11-25T01:11:01.102Z,936.03
2018-11-25T01:12:09.065Z,935.98
2018-11-25T01:13:17.218Z,936.01
2018-11-25T01:14:25.186Z,936.03
2018-11-25T01:15:33.266Z,936.06
2018-11-25T01:16:41.393Z,936.03
2018-11-25T01:17:49.347Z,936.03
2018-11-25T01:18:57.411Z,936.00
2018-11-25T01:20:05.461Z,936.03
2018-11-25T01:21:13.503Z,935.99
2018-11-25T01:22:21.667Z,935.99
2018-11-25T01:23:29.637Z,935.96
2018-11-25T01:24:37.692Z,935.98
2018-11-25T01:25:45.742Z,935.95
2018-11-25T01:26:53.780Z,935.97
2018-11-25T01:28:01.945Z,935.96
2018-11-25T01:29:09.984Z,935.97
2018-11-25T01:30:17.951Z,935.96
2018-11-25T01:31:26.020Z,935.94
2018-11-25T01:32:34.136Z,935.94
2018-11-25T01:33:42.111Z,935.92
2018-11-25T01:34:50.200Z,935.92
2018-11-25T01:35:58.225Z,935.92
2018-11-25T01:37:06.279Z,935.89
2018-11-25T01:38:14.429Z,935.91
2018-11-25T01:39:22.392Z,935.88
2018-11-25T01:40:30.450Z,935.88
2018-11-25T01:41:38.534Z,935.86
2018-11-25T01:42:46.552Z,935.85
2018-11-25T01:43:54.721Z,935.84
2018-11-25T01:45:02.774Z,935.82
2018-11-25T01:46:10.760Z,935.82
2018-11-25T01:47:18.783Z,935.81
2018-11-25T01:48:26.837Z,935.78
2018-11-25T01:49:34.991Z,935.80
2018-11-25T01:50:42.964Z,935.78
2018-11-25T01:51:51.013Z,935.79
2018-11-25T01:52:59.062Z,935.79
2018-11-25T01:54:07.123Z,935.78
2018-11-25T01:55:15.290Z,935.79
2018-11-25T01:56:23.235Z,935.79
2018-11-25T01:57:31.288Z,935.74
2018-11-25T01:58:39.347Z,935.74
2018-11-25T01:59:47.413Z,935.70
2018-11-25T02:00:55.568Z,935.74
2018-11-25T02:02:03.507Z,935.71
2018-11-25T02:03:11.585Z,935.70
2018-11-25T02:04:19.632Z,935.69
2018-11-25T02:05:27.704Z,935.66
2018-11-25T02:06:35.843Z,935.65
2018-11-25T02:07:43.791Z,935.60
2018-11-25T02:08:51.850Z,935.60
2018-11-25T02:09:59.902Z,935.60
2018-11-25T02:11:08.075Z,935.58
2018-11-25T02:12:16.019Z,935.55
2018-11-25T02:13:24.053Z,935.56
2018-11-25T02:14:32.127Z,935.53
2018-11-25T02:15:40.197Z,935.53
2018-11-25T02:16:48.349Z,935.54
2018-11-25T02:17:56.303Z,935.49
2018-11-25T02:19:04.347Z,935.47
2018-11-25T02:20:12.418Z,935.46
2018-11-25T02:21:20.470Z,935.42
2018-11-25T02:22:29.063Z,935.44
2018-11-25T02:23:36.582Z,935.44
2018-11-25T02:24:44.649Z,935.44
2018-11-25T02:25:52.727Z,935.40
2018-11-25T02:27:00.753Z,935.38
2018-11-25T02:28:08.920Z,935.38
2018-11-25T02:29:16.871Z,935.33
2018-11-25T02:30:24.936Z,935.35
2018-11-25T02:31:32.988Z,935.32
2018-11-25T02:32:41.091Z,935.33
2018-11-25T02:33:49.181Z,935.30
2018-11-25T02:34:57.174Z,935.26
2018-11-25T02:36:05.209Z,935.28
2018-11-25T02:37:13.266Z,935.25
2018-11-25T02:38:21.305Z,935.21
2018-11-25T02:39:29.476Z,935.19
2018-11-25T02:40:37.438Z,935.19
2018-11-25T02:41:45.488Z,935.15
2018-11-25T02:42:53.519Z,935.18
2018-11-25T02:44:01.588Z,935.15
2018-11-25T02:45:09.738Z,935.14
2018-11-25T02:46:17.723Z,935.11
2018-11-25T02:47:25.784Z,935.13
2018-11-25T02:48:33.825Z,935.16
2018-11-25T02:49:41.886Z,935.15
2018-11-25T02:50:49.994Z,935.11
2018-11-25T02:51:58.006Z,935.11
2018-11-25T02:53:06.043Z,935.07
2018-11-25T02:54:14.081Z,935.06
2018-11-25T02:55:22.155Z,935.08
2018-11-25T02:56:30.317Z,935.06
2018-11-25T02:57:38.272Z,935.04
2018-11-25T02:58:46.324Z,935.04
2018-11-25T02:59:54.378Z,935.05
2018-11-25T03:01:02.438Z,935.01
2018-11-25T03:02:10.596Z,935.01
2018-11-25T03:03:18.640Z,935.01
2018-11-25T03:04:26.648Z,934.96
2018-11-25T03:05:34.663Z,934.94
2018-11-25T03:06:42.737Z,934.95
2018-11-25T03:07:50.872Z,934.95
2018-11-25T03:08:58.835Z,934.93
2018-11-25T03:10:06.882Z,934.90
2018-11-25T03:11:14.946Z,934.89
2018-11-25T03:12:23.008Z,934.89
2018-11-25T03:13:31.067Z,934.84
2018-11-25T03:14:39.113Z,934.87
2018-11-25T03:15:47.163Z,934.85
2018-11-25T03:16:55.226Z,934.87
2018-11-25T03:18:03.358Z,934.81
2018-11-25T03:19:11.330Z,934.81
2018-11-25T03:20:19.423Z,934.84
2018-11-25T03:21:27.465Z,934.78
2018-11-25T03:22:35.598Z,934.77
2018-11-25T03:23:43.562Z,934.75
2018-11-25T03:24:51.616Z,934.70
2018-11-25T03:25:59.817Z,934.67
2018-11-25T03:27:07.730Z,934.71
2018-11-25T03:28:15.934Z,934.65
2018-11-25T03:29:23.831Z,934.68
2018-11-25T03:30:31.916Z,934.64
2018-11-25T03:31:39.959Z,934.64
2018-11-25T03:32:48.064Z,934.61
2018-11-25T03:33:56.176Z,934.60
2018-11-25T03:35:04.112Z,934.57
2018-11-25T03:36:12.177Z,934.55
2018-11-25T03:37:20.230Z,934.51
2018-11-25T03:38:28.301Z,934.47
2018-11-25T03:39:36.463Z,934.46
2018-11-25T03:40:44.398Z,934.47
2018-11-25T03:41:52.465Z,934.43
2018-11-25T03:43:00.522Z,934.44
2018-11-25T03:44:08.596Z,934.42
2018-11-25T03:45:16.716Z,934.39
2018-11-25T03:46:24.679Z,934.31
2018-11-25T03:47:32.841Z,934.34
2018-11-25T03:48:40.836Z,934.29
2018-11-25T03:49:48.859Z,934.29
2018-11-25T03:50:57.009Z,934.31
2018-11-25T03:52:04.968Z,934.30
2018-11-25T03:53:13.027Z,934.31
2018-11-25T03:54:21.082Z,934.31
2018-11-25T03:55:29.134Z,934.29
2018-11-25T03:56:37.440Z,934.31
2018-11-25T03:57:45.242Z,934.28
2018-11-25T03:58:53.286Z,934.29
2018-11-25T04:00:01.348Z,934.24
2018-11-25T04:01:09.416Z,934.26
2018-11-25T04:02:17.557Z,934.28
2018-11-25T04:03:25.629Z,934.22
2018-11-25T04:04:33.568Z,934.26
2018-11-25T04:05:41.644Z,934.23
2018-11-25T04:06:49.689Z,934.22
2018-11-25T04:07:57.818Z,934.22
2018-11-25T04:09:05.805Z,934.21
2018-11-25T04:10:13.839Z,934.22
2018-11-25T04:11:21.915Z,934.18
2018-11-25T04:12:30.012Z,934.18
2018-11-25T04:13:38.017Z,934.19
2018-11-25T04:14:46.096Z,934.16
2018-11-25T04:15:54.112Z,934.16
2018-11-25T04:17:02.191Z,934.13
2018-11-25T04:18:10.283Z,934.13
2018-11-25T04:19:18.396Z,934.13
2018-11-25T04:20:26.367Z,934.09
2018-11-25T04:21:34.417Z,934.14
2018-11-25T04:22:42.561Z,934.09
2018-11-25T04:23:50.530Z,934.06
2018-11-25T04:24:58.581Z,934.06
2018-11-25T04:26:06.645Z,934.07
2018-11-25T04:27:14.684Z,934.08
2018-11-25T04:28:22.843Z,934.04
2018-11-25T04:29:30.957Z,934.06
2018-11-25T04:30:38.863Z,934.06
2018-11-25T04:31:46.930Z,934.11
2018-11-25T04:32:54.982Z,934.06
2018-11-25T04:34:03.133Z,934.08
2018-11-25T04:35:11.531Z,934.08
2018-11-25T04:36:19.153Z,934.06
2018-11-25T04:37:27.205Z,934.06
2018-11-25T04:38:35.268Z,934.04
2018-11-25T04:39:43.392Z,934.03
2018-11-25T04:40:51.372Z,934.07
2018-11-25T04:41:59.430Z,934.05
2018-11-25T04:43:07.487Z,934.03
2018-11-25T04:44:15.540Z,934.04
2018-11-25T04:45:23.683Z,934.03
2018-11-25T04:46:31.654Z,933.97
2018-11-25T04:47:39.698Z,933.96
2018-11-25T04:48:47.756Z,933.96
2018-11-25T04:49:55.824Z,933.93
2018-11-25T04:51:03.949Z,933.91
2018-11-25T04:52:11.929Z,933.95
2018-11-25T04:53:19.970Z,933.93
2018-11-25T04:54:28.049Z,933.96
2018-11-25T04:55:36.102Z,933.96
2018-11-25T04:56:44.228Z,933.94
2018-11-25T04:57:52.211Z,933.95
2018-11-25T04:59:00.250Z,933.96
2018-11-25T05:00:08.341Z,933.93
2018-11-25T05:01:16.383Z,933.90
2018-11-25T05:02:24.516Z,933.89
2018-11-25T05:03:32.492Z,933.90
2018-11-25T05:04:40.538Z,933.93
2018-11-25T05:05:48.584Z,933.86
2018-11-25T05:06:56.749Z,933.87
2018-11-25T05:08:04.810Z,933.90
2018-11-25T05:09:12.778Z,933.90
2018-11-25T05:10:20.823Z,933.85
2018-11-25T05:11:28.882Z,933.86
2018-11-25T05:12:37.040Z,933.83
2018-11-25T05:13:44.972Z,933.84
2018-11-25T05:14:53.048Z,933.80
2018-11-25T05:16:01.097Z,933.82
2018-11-25T05:17:09.161Z,933.79
2018-11-25T05:18:17.313Z,933.79
2018-11-25T05:19:25.270Z,933.77
2018-11-25T05:20:33.309Z,933.80
2018-11-25T05:21:41.388Z,933.79
2018-11-25T05:22:49.491Z,933.75
2018-11-25T05:23:57.536Z,933.74
2018-11-25T05:25:05.538Z,933.71
2018-11-25T05:26:13.591Z,933.72
2018-11-25T05:27:21.644Z,933.67
2018-11-25T05:28:29.712Z,933.67
2018-11-25T05:29:37.860Z,933.66
2018-11-25T05:30:45.813Z,933.64
2018-11-25T05:31:53.854Z,933.68
2018-11-25T05:33:01.940Z,933.68
2018-11-25T05:34:10.144Z,933.69
2018-11-25T05:35:18.134Z,933.70
2018-11-25T05:36:26.100Z,933.69
2018-11-25T05:37:34.203Z,933.72
2018-11-25T05:38:42.221Z,933.68
2018-11-25T05:39:50.263Z,933.68
2018-11-25T05:40:58.417Z,933.66
2018-11-25T05:42:06.381Z,933.62
2018-11-25T05:43:14.424Z,933.63
2018-11-25T05:44:22.481Z,933.60
2018-11-25T05:45:30.531Z,933.57
2018-11-25T05:46:38.692Z,933.62
2018-11-25T05:47:46.648Z,933.61
2018-11-25T05:48:54.703Z,933.61
2018-11-25T05:50:02.755Z,933.62
2018-11-25T05:51:10.844Z,933.65
2018-11-25T05:52:18.969Z,933.64
2018-11-25T05:53:26.965Z,933.66
2018-11-25T05:54:34.982Z,933.68
2018-11-25T05:55:43.337Z,933.68
2018-11-25T05:56:51.197Z,933.63
2018-11-25T05:57:59.184Z,933.60
2018-11-25T05:59:07.211Z,933.66
2018-11-25T06:00:15.275Z,933.61
2018-11-25T06:01:23.291Z,933.58
2018-11-25T06:02:31.417Z,933.61
2018-11-25T06:03:39.562Z,933.53
2018-11-25T06:04:47.482Z,933.51
2018-11-25T06:05:55.618Z,933.51
2018-11-25T06:07:03.573Z,933.47
2018-11-25T06:08:11.740Z,933.46
2018-11-25T06:09:19.687Z,933.46
2018-11-25T06:10:27.753Z,933.47
2018-11-25T06:11:36.061Z,933.51
2018-11-25T06:12:43.928Z,933.50
2018-11-25T06:13:51.932Z,933.51
2018-11-25T06:14:59.975Z,933.50
2018-11-25T06:16:08.054Z,933.50
2018-11-25T06:17:16.111Z,933.44
2018-11-25T06:18:24.167Z,933.44
2018-11-25T06:19:32.194Z,933.46
2018-11-25T06:20:40.258Z,933.40
2018-11-25T06:21:48.319Z,933.41
2018-11-25T06:22:56.458Z,933.38
2018-11-25T06:24:04.392Z,933.38
2018-11-25T06:25:12.448Z,933.35
2018-11-25T06:26:20.522Z,933.36
2018-11-25T06:27:28.582Z,933.37
2018-11-25T06:28:36.733Z,933.36
2018-11-25T06:29:44.704Z,933.34
2018-11-25T06:30:52.744Z,933.37
2018-11-25T06:32:00.961Z,933.34
2018-11-25T06:33:08.857Z,933.27
2018-11-25T06:34:17.362Z,933.28
2018-11-25T06:35:24.964Z,933.26
2018-11-25T06:36:33.028Z,933.26
2018-11-25T06:37:41.098Z,933.30
2018-11-25T06:38:49.229Z,933.31
2018-11-25T06:39:57.277Z,933.32
2018-11-25T06:41:05.236Z,933.34
2018-11-25T06:42:13.278Z,933.32
2018-11-25T06:43:21.351Z,933.29
2018-11-25T06:44:29.406Z,933.27
2018-11-25T06:45:38.174Z,933.23
2018-11-25T06:46:45.535Z,933.20
2018-11-25T06:47:53.544Z,933.25
2018-11-25T06:49:02.051Z,933.23
2018-11-25T06:50:09.688Z,933.17
2018-11-25T06:51:17.828Z,933.16
2018-11-25T06:52:25.792Z,933.16
2018-11-25T06:53:33.820Z,933.16
2018-11-25T06:54:42.160Z,933.17
2018-11-25T06:55:50.543Z,933.16
2018-11-25T06:56:59.076Z,933.20
2018-11-25T06:58:06.410Z,933.21
2018-11-25T06:59:14.694Z,933.16
2018-11-25T07:00:22.184Z,933.17
2018-11-25T07:01:30.288Z,933.16
2018-11-25T07:02:38.389Z,933.18
2018-11-25T07:03:46.362Z,933.15
2018-11-25T07:04:54.392Z,933.20
2018-11-25T07:06:02.468Z,933.12
2018-11-25T07:07:10.522Z,933.14
2018-11-25T07:08:19.122Z,933.11
2018-11-25T07:09:27.020Z,933.11
2018-11-25T07:10:34.777Z,933.10
2018-11-25T07:11:42.739Z,933.06
2018-11-25T07:12:50.883Z,933.05
2018-11-25T07:13:59.437Z,933.04
2018-11-25T07:15:06.905Z,933.04
2018-11-25T07:16:15.503Z,933.05
2018-11-25T07:17:23.110Z,933.05
2018-11-25T07:18:31.630Z,933.05
2018-11-25T07:19:39.124Z,933.04
2018-11-25T07:20:47.234Z,933.09
2018-11-25T07:21:55.226Z,933.08
2018-11-25T07:23:03.368Z,933.06
2018-11-25T07:24:11.384Z,933.10
2018-11-25T07:25:19.708Z,933.06
2018-11-25T07:26:27.660Z,933.04
2018-11-25T07:27:35.716Z,933.04
2018-11-25T07:28:43.710Z,933.04
2018-11-25T07:29:51.984Z,933.08
2018-11-25T07:31:00.091Z,933.05
2018-11-25T07:32:08.001Z,933.01
2018-11-25T07:33:16.129Z,932.99
2018-11-25T07:34:23.895Z,933.01
2018-11-25T07:35:31.917Z,933.00
2018-11-25T07:36:41.345Z,932.98
2018-11-25T07:37:48.586Z,932.97
2018-11-25T07:38:56.088Z,932.97
2018-11-25T07:40:04.497Z,932.97
2018-11-25T07:41:12.260Z,932.96
2018-11-25T07:42:20.342Z,932.99
2018-11-25T07:43:28.297Z,932.96
2018-11-25T07:44:36.363Z,932.99
2018-11-25T07:45:44.527Z,932.97
2018-11-25T07:46:52.534Z,932.96
2018-11-25T07:48:00.506Z,932.96
2018-11-25T07:49:09.124Z,932.93
2018-11-25T07:50:17.069Z,932.90
2018-11-25T07:51:24.791Z,932.87
2018-11-25T07:52:32.749Z,932.82
2018-11-25T07:53:40.792Z,932.81
2018-11-25T07:54:48.885Z,932.80
2018-11-25T07:55:57.424Z,932.78
2018-11-25T07:57:05.011Z,932.80
2018-11-25T07:58:13.099Z,932.76
2018-11-25T07:59:21.077Z,932.77
2018-11-25T08:00:29.263Z,932.78
2018-11-25T08:01:37.330Z,932.75
2018-11-25T08:02:45.259Z,932.74
2018-11-25T08:03:53.292Z,932.70
2018-11-25T08:05:01.393Z,932.69
2018-11-25T08:06:09.430Z,932.66
2018-11-25T08:07:17.562Z,932.63
2018-11-25T08:08:25.534Z,932.59
2018-11-25T08:09:33.576Z,932.58
2018-11-25T08:10:41.645Z,932.58
2018-11-25T08:11:49.704Z,932.57
2018-11-25T08:12:57.865Z,932.64
2018-11-25T08:14:05.810Z,932.54
2018-11-25T08:15:13.846Z,932.47
2018-11-25T08:16:21.932Z,932.52
2018-11-25T08:17:30.089Z,932.54
2018-11-25T08:18:38.041Z,932.50
2018-11-25T08:19:46.088Z,932.50
2018-11-25T08:20:54.136Z,932.51
2018-11-25T08:22:02.219Z,932.47
2018-11-25T08:23:11.031Z,932.44
2018-11-25T08:24:18.325Z,932.46
2018-11-25T08:25:26.400Z,932.44
2018-11-25T08:26:34.870Z,932.45
2018-11-25T08:27:42.907Z,932.43
2018-11-25T08:28:50.848Z,932.40
2018-11-25T08:29:58.631Z,932.39
2018-11-25T08:31:06.678Z,932.37
2018-11-25T08:32:14.746Z,932.37
2018-11-25T08:33:22.790Z,932.37
2018-11-25T08:34:31.015Z,932.38
2018-11-25T08:35:38.912Z,932.42
2018-11-25T08:36:46.964Z,932.44
2018-11-25T08:37:55.035Z,932.43
2018-11-25T08:39:03.085Z,932.39
2018-11-25T08:40:11.233Z,932.39
2018-11-25T08:41:19.417Z,932.43
2018-11-25T08:42:27.246Z,932.40
2018-11-25T08:43:35.511Z,932.42
2018-11-25T08:44:43.372Z,932.36
2018-11-25T08:45:54.479Z,932.33
2018-11-25T08:46:59.493Z,932.30
2018-11-25T08:48:07.548Z,932.32
2018-11-25T08:49:16.140Z,932.33
2018-11-25T08:50:24.152Z,932.28
2018-11-25T08:51:33.013Z,932.25
2018-11-25T08:52:40.328Z,932.22
2018-11-25T08:53:48.161Z,932.24
2018-11-25T08:54:56.329Z,932.23
2018-11-25T08:56:04.364Z,932.23
2018-11-25T08:57:12.097Z,932.19
2018-11-25T08:58:20.625Z,932.21
2018-11-25T08:59:28.475Z,932.27
2018-11-25T09:00:36.247Z,932.21
2018-11-25T09:01:44.631Z,932.20
2018-11-25T09:02:52.339Z,932.21
2018-11-25T09:04:00.344Z,932.17
2018-11-25T09:05:08.675Z,932.22
2018-11-25T09:06:16.464Z,932.18
2018-11-25T09:07:24.817Z,932.11
2018-11-25T09:08:32.580Z,932.09
2018-11-25T09:09:40.660Z,932.09
2018-11-25T09:10:49.318Z,932.05
2018-11-25T09:11:56.765Z,932.04
2018-11-25T09:13:04.920Z,932.06
2018-11-25T09:14:12.886Z,932.02
2018-11-25T09:15:20.931Z,931.98
2018-11-25T09:16:29.014Z,932.03
2018-11-25T09:17:37.057Z,932.00
2018-11-25T09:18:45.212Z,931.97
2018-11-25T09:19:53.176Z,931.98
2018-11-25T09:21:01.247Z,931.96
2018-11-25T09:22:09.303Z,931.94
2018-11-25T09:23:17.350Z,931.94
2018-11-25T09:24:25.514Z,931.97
2018-11-25T09:25:33.442Z,931.94
2018-11-25T09:26:41.531Z,931.88
2018-11-25T09:27:49.644Z,931.88
2018-11-25T09:28:57.650Z,931.87
2018-11-25T09:30:05.809Z,931.83
2018-11-25T09:31:13.756Z,931.77
2018-11-25T09:32:22.956Z,931.77
2018-11-25T09:33:29.892Z,931.75
2018-11-25T09:34:37.944Z,931.74
2018-11-25T09:35:46.104Z,931.76
2018-11-25T09:36:54.044Z,931.76
2018-11-25T09:38:02.134Z,931.71
2018-11-25T09:39:10.183Z,931.74
2018-11-25T09:40:18.240Z,931.73
2018-11-25T09:41:26.388Z,931.74
2018-11-25T09:42:34.437Z,931.73
2018-11-25T09:43:42.413Z,931.72
2018-11-25T09:44:50.478Z,931.72
2018-11-25T09:45:58.536Z,931.69
2018-11-25T09:47:06.684Z,931.70
2018-11-25T09:48:14.652Z,931.68
2018-11-25T09:49:22.713Z,931.60
2018-11-25T09:50:30.782Z,931.61
2018-11-25T09:51:38.842Z,931.57
2018-11-25T09:52:46.991Z,931.54
2018-11-25T09:53:54.940Z,931.62
2018-11-25T09:55:03.024Z,931.52
2018-11-25T09:56:11.221Z,931.55
2018-11-25T09:57:19.136Z,931.55
2018-11-25T09:58:27.283Z,931.56
2018-11-25T09:59:35.239Z,931.52
2018-11-25T10:00:43.300Z,931.58
2018-11-25T10:01:51.501Z,931.56
2018-11-25T10:02:59.442Z,931.55
2018-11-25T10:04:07.571Z,931.57
2018-11-25T10:05:15.562Z,931.52
2018-11-25T10:06:23.608Z,931.61
2018-11-25T10:07:31.664Z,931.53
2018-11-25T10:08:39.750Z,931.49
2018-11-25T10:09:47.904Z,931.50
2018-11-25T10:10:55.846Z,931.49
2018-11-25T10:12:03.886Z,931.44
2018-11-25T10:13:12.070Z,931.50
2018-11-25T10:14:20.030Z,931.49
2018-11-25T10:15:28.190Z,931.42
2018-11-25T10:16:36.141Z,931.37
2018-11-25T10:17:44.190Z,931.42
2018-11-25T10:18:52.289Z,931.35
2018-11-25T10:20:00.314Z,931.28
2018-11-25T10:21:08.489Z,931.21
2018-11-25T10:22:16.440Z,931.22
2018-11-25T10:23:24.506Z,931.19
2018-11-25T10:24:32.588Z,931.16
2018-11-25T10:25:40.634Z,931.12
2018-11-25T10:26:48.808Z,931.09
2018-11-25T10:27:56.742Z,931.07
2018-11-25T10:29:04.900Z,931.09
2018-11-25T10:30:12.876Z,931.05
2018-11-25T10:31:20.933Z,931.04
2018-11-25T10:32:29.100Z,931.03
2018-11-25T10:33:37.052Z,931.03
2018-11-25T10:34:45.105Z,930.97
2018-11-25T10:35:53.159Z,930.99
2018-11-25T10:37:01.236Z,931.01
2018-11-25T10:38:09.336Z,930.96
2018-11-25T10:39:17.344Z,930.99
2018-11-25T10:40:25.429Z,930.97
2018-11-25T10:41:33.437Z,930.98
2018-11-25T10:42:41.627Z,930.97
2018-11-25T10:43:49.587Z,930.96
2018-11-25T10:44:57.701Z,931.02
2018-11-25T10:46:05.702Z,930.99
2018-11-25T10:47:13.754Z,930.96
2018-11-25T10:48:21.944Z,930.96
2018-11-25T10:49:29.889Z,930.95
2018-11-25T10:50:37.949Z,930.96
2018-11-25T10:51:45.997Z,930.91
2018-11-25T10:52:54.053Z,930.94
2018-11-25T10:54:02.237Z,930.94
2018-11-25T10:55:10.197Z,930.93
2018-11-25T10:56:18.246Z,930.90
2018-11-25T10:57:26.314Z,930.90
2018-11-25T10:58:34.362Z,930.91
2018-11-25T10:59:42.530Z,930.89
2018-11-25T11:00:50.489Z,930.84
2018-11-25T11:01:58.551Z,930.83
2018-11-25T11:03:06.652Z,930.78
2018-11-25T11:04:14.690Z,930.76
2018-11-25T11:05:22.828Z,930.74
2018-11-25T11:06:30.798Z,930.73
2018-11-25T11:07:38.858Z,930.70
2018-11-25T11:08:47.036Z,930.72
2018-11-25T11:09:54.992Z,930.68
2018-11-25T11:11:03.141Z,930.68
2018-11-25T11:12:11.092Z,930.68
2018-11-25T11:13:19.152Z,930.67
2018-11-25T11:14:27.240Z,930.69
2018-11-25T11:15:35.377Z,930.66
2018-11-25T11:16:43.426Z,930.68
2018-11-25T11:17:51.434Z,930.66
2018-11-25T11:18:59.473Z,930.65
2018-11-25T11:20:07.523Z,930.57
2018-11-25T11:21:15.571Z,930.59
2018-11-25T11:22:23.721Z,930.62
2018-11-25T11:23:31.701Z,930.58
2018-11-25T11:24:39.766Z,930.61
2018-11-25T11:25:47.818Z,930.61
2018-11-25T11:26:55.872Z,930.64
2018-11-25T11:28:03.949Z,930.62
2018-11-25T11:29:12.000Z,930.57
2018-11-25T11:30:20.063Z,930.59
2018-11-25T11:31:28.224Z,930.52
2018-11-25T11:32:36.245Z,930.49
2018-11-25T11:33:44.246Z,930.49
2018-11-25T11:34:52.316Z,930.47
2018-11-25T11:36:00.404Z,930.49
2018-11-25T11:37:08.437Z,930.45
2018-11-25T11:38:16.595Z,930.40
2018-11-25T11:39:24.562Z,930.37
2018-11-25T11:40:32.619Z,930.40
2018-11-25T11:41:40.685Z,930.37
2018-11-25T11:42:48.829Z,930.34
2018-11-25T11:43:56.807Z,930.37
2018-11-25T11:45:04.854Z,930.32
2018-11-25T11:46:12.919Z,930.26
2018-11-25T11:47:21.079Z,930.30
2018-11-25T11:48:29.040Z,930.26
2018-11-25T11:49:37.105Z,930.28
2018-11-25T11:50:45.158Z,930.23
2018-11-25T11:51:53.223Z,930.23
2018-11-25T11:53:01.392Z,930.23
2018-11-25T11:54:09.451Z,930.20
2018-11-25T11:55:17.404Z,930.16
2018-11-25T11:56:25.468Z,930.16
2018-11-25T11:57:33.544Z,930.15
2018-11-25T11:58:41.599Z,930.15
2018-11-25T11:59:49.659Z,930.12
2018-11-25T12:00:57.717Z,930.15
2018-11-25T12:02:05.765Z,930.06
2018-11-25T12:03:13.895Z,930.07
2018-11-25T12:05:32.559Z,930.05
2018-11-25T12:06:40.628Z,929.99
2018-11-25T12:07:48.696Z,930.04
2018-11-25T12:08:56.995Z,930.01
2018-11-25T12:10:04.790Z,930.04
2018-11-25T12:11:13.024Z,930.01
2018-11-25T12:12:20.919Z,929.97
2018-11-25T12:13:29.003Z,929.94
2018-11-25T12:14:37.130Z,930.01
2018-11-25T12:15:45.102Z,929.97
2018-11-25T12:16:53.149Z,929.96
2018-11-25T12:18:01.317Z,929.98
2018-11-25T12:19:09.280Z,929.97
2018-11-25T12:20:21.157Z,930.03
2018-11-25T12:21:25.407Z,929.98
2018-11-25T12:22:33.449Z,929.98
2018-11-25T12:23:41.532Z,929.95
2018-11-25T12:24:49.581Z,929.96
2018-11-25T12:25:57.743Z,929.98
2018-11-25T12:27:05.702Z,930.05
2018-11-25T12:28:13.732Z,930.01
2018-11-25T12:29:21.841Z,930.02
2018-11-25T12:30:29.877Z,930.00
2018-11-25T12:31:38.195Z,930.00
2018-11-25T12:32:46.045Z,930.03
2018-11-25T12:33:54.045Z,930.05
2018-11-25T12:35:02.108Z,929.99
2018-11-25T12:36:10.190Z,930.02
2018-11-25T12:37:18.331Z,930.01
2018-11-25T12:38:26.329Z,930.02
2018-11-25T12:39:34.362Z,930.01
2018-11-25T12:40:42.420Z,929.98
2018-11-25T12:41:50.477Z,930.01
2018-11-25T12:42:58.592Z,929.98
2018-11-25T12:44:06.609Z,929.99
2018-11-25T12:45:14.658Z,929.96
2018-11-25T12:46:22.733Z,929.99
2018-11-25T12:47:30.876Z,929.92
2018-11-25T12:48:38.840Z,929.89
2018-11-25T12:49:46.907Z,929.87
2018-11-25T12:50:54.962Z,929.94
2018-11-25T12:52:03.028Z,929.92
2018-11-25T12:53:11.139Z,929.92
2018-11-25T12:54:20.546Z,929.98
2018-11-25T12:55:28.602Z,929.92
2018-11-25T12:56:36.675Z,929.94
2018-11-25T12:57:44.787Z,929.96
2018-11-25T12:58:52.846Z,929.89
2018-11-25T13:00:00.869Z,929.85
2018-11-25T13:01:08.916Z,929.83
2018-11-25T13:02:16.977Z,929.81
2018-11-25T13:03:25.130Z,929.85
2018-11-25T13:04:33.091Z,929.79
2018-11-25T13:05:45.811Z,929.79
2018-11-25T13:06:49.215Z,929.84
2018-11-25T13:07:57.352Z,929.80
2018-11-25T13:09:05.438Z,929.79
2018-11-25T13:10:13.403Z,929.82
2018-11-25T13:11:21.447Z,929.81
2018-11-25T13:12:29.521Z,929.83
2018-11-25T13:13:37.576Z,929.87
2018-11-25T13:14:45.728Z,929.89
2018-11-25T13:15:53.856Z,929.83
2018-11-25T13:17:01.750Z,929.84
2018-11-25T13:18:09.860Z,929.88
2018-11-25T13:19:17.977Z,929.88
2018-11-25T13:20:26.045Z,929.89
2018-11-25T13:21:33.987Z,929.88
2018-11-25T13:22:42.037Z,929.87
2018-11-25T13:23:50.128Z,929.77
2018-11-25T13:24:58.185Z,929.88
2018-11-25T13:26:06.339Z,929.80
2018-11-25T13:27:14.289Z,929.82
2018-11-25T13:28:22.388Z,929.82
2018-11-25T13:29:30.436Z,929.81
2018-11-25T13:30:38.465Z,929.77
2018-11-25T13:31:46.644Z,929.76
2018-11-25T13:32:54.592Z,929.77
2018-11-25T13:34:02.659Z,929.74
2018-11-25T13:35:10.822Z,929.82
2018-11-25T13:36:18.796Z,929.75
2018-11-25T13:37:26.933Z,929.75
2018-11-25T13:38:34.921Z,929.71
2018-11-25T13:39:42.954Z,929.75
2018-11-25T13:40:51.023Z,929.77
2018-11-25T13:41:59.082Z,929.70
2018-11-25T13:43:07.172Z,929.69
2018-11-25T13:44:15.222Z,929.74
2018-11-25T13:45:23.280Z,929.75
2018-11-25T13:46:31.323Z,929.74
2018-11-25T13:47:39.487Z,929.79
2018-11-25T13:48:47.446Z,929.80
2018-11-25T13:49:55.513Z,929.79
2018-11-25T13:51:03.648Z,929.76
2018-11-25T13:52:11.637Z,929.79
2018-11-25T13:53:19.940Z,929.78
2018-11-25T13:54:27.736Z,929.79
2018-11-25T13:55:35.844Z,929.76
2018-11-25T13:56:43.831Z,929.78
2018-11-25T13:57:51.944Z,929.79
2018-11-25T13:59:00.075Z,929.75
2018-11-25T14:00:08.040Z,929.81
2018-11-25T14:01:16.106Z,929.79
2018-11-25T14:02:24.142Z,929.75
2018-11-25T14:03:32.266Z,929.74
2018-11-25T14:04:40.347Z,929.79
2018-11-25T14:05:52.952Z,929.77
2018-11-25T14:06:56.519Z,929.74
2018-11-25T14:08:04.446Z,929.76
2018-11-25T14:09:12.627Z,929.76
2018-11-25T14:10:20.595Z,929.71